createdAt,value
2023-07-22T00:02:14.959Z,2.97
2023-07-22T00:04:42.355Z,2.17
2023-07-22T00:07:11.171Z,1.73
2023-07-22T00:09:40.236Z,1.92
2023-07-22T00:12:09.343Z,1.80
2023-07-22T00:14:42.084Z,1.65
2023-07-22T00:17:12.626Z,1.65
2023-07-22T00:19:41.339Z,2.33
2023-07-22T00:22:10.344Z,2.05
2023-07-22T00:24:38.450Z,1.75
2023-07-22T00:27:09.914Z,1.83
2023-07-22T00:29:38.951Z,2.20
2023-07-22T00:32:08.524Z,1.73
2023-07-22T00:34:36.766Z,1.50
2023-07-22T00:37:04.641Z,2.30
2023-07-22T00:39:32.564Z,2.00
2023-07-22T00:42:17.103Z,2.05
2023-07-22T00:45:08.400Z,1.87
2023-07-22T00:48:14.105Z,2.20
2023-07-22T00:50:47.304Z,1.80
2023-07-22T00:53:17.578Z,2.20
2023-07-22T00:55:46.881Z,2.33
2023-07-22T00:58:14.683Z,2.30
2023-07-22T01:00:42.965Z,2.92
2023-07-22T01:03:12.771Z,2.60
2023-07-22T01:05:44.267Z,2.17
2023-07-22T01:08:11.782Z,2.15
2023-07-22T01:10:45.289Z,1.90
2023-07-22T01:13:13.777Z,1.77
2023-07-22T01:15:42.187Z,2.40
2023-07-22T01:18:09.789Z,2.60
2023-07-22T01:20:37.155Z,2.75
2023-07-22T01:23:05.162Z,2.33
2023-07-22T01:25:32.536Z,2.05
2023-07-22T01:27:59.776Z,1.95
2023-07-22T01:30:30.504Z,1.90
2023-07-22T01:32:58.043Z,2.03
2023-07-22T01:35:27.918Z,2.03
2023-07-22T01:37:56.276Z,2.08
2023-07-22T01:40:26.187Z,2.10
2023-07-22T01:42:54.875Z,2.42
2023-07-22T01:45:22.483Z,1.85
2023-07-22T01:47:54.062Z,2.40
2023-07-22T01:50:23.974Z,2.38
2023-07-22T01:52:51.565Z,2.30
2023-07-22T01:55:19.768Z,1.88
2023-07-22T01:57:47.058Z,1.88
2023-07-22T02:00:19.152Z,1.92
2023-07-22T02:03:25.131Z,2.38
2023-07-22T02:06:02.166Z,1.63
2023-07-22T02:08:33.775Z,1.35
2023-07-22T02:11:06.020Z,1.88
2023-07-22T02:13:36.177Z,1.65
2023-07-22T02:16:04.470Z,1.50
2023-07-22T02:18:32.171Z,2.13
2023-07-22T02:21:01.002Z,1.80
2023-07-22T02:23:28.291Z,1.20
2023-07-22T02:25:56.155Z,1.50
2023-07-22T02:28:25.069Z,1.55
2023-07-22T02:30:55.098Z,1.48
2023-07-22T02:33:25.426Z,1.63
2023-07-22T02:35:58.348Z,1.80
2023-07-22T02:38:25.577Z,1.35
2023-07-22T02:40:53.177Z,1.70
2023-07-22T02:43:20.697Z,1.70
2023-07-22T02:45:51.037Z,1.85
2023-07-22T02:48:18.241Z,1.50
2023-07-22T02:50:45.857Z,1.70
2023-07-22T02:53:16.504Z,1.70
2023-07-22T02:55:46.130Z,1.60
2023-07-22T02:58:15.982Z,1.70
2023-07-22T03:00:43.478Z,1.55
2023-07-22T03:03:10.725Z,1.77
2023-07-22T03:05:39.466Z,1.63
2023-07-22T03:08:08.286Z,1.75
2023-07-22T03:10:38.337Z,2.35
2023-07-22T03:13:06.675Z,2.60
2023-07-22T03:15:34.908Z,2.10
2023-07-22T03:18:02.772Z,1.60
2023-07-22T03:20:47.360Z,2.70
2023-07-22T03:23:25.022Z,1.73
2023-07-22T03:25:52.467Z,1.58
2023-07-22T03:28:20.290Z,1.73
2023-07-22T03:30:50.596Z,2.00
2023-07-22T03:33:17.978Z,2.03
2023-07-22T03:35:45.642Z,1.95
2023-07-22T03:38:20.069Z,1.92
2023-07-22T03:40:48.912Z,1.70
2023-07-22T03:43:16.041Z,1.70
2023-07-22T03:45:44.238Z,1.80
2023-07-22T03:48:11.531Z,2.10
2023-07-22T03:50:38.842Z,2.00
2023-07-22T03:53:05.992Z,2.42
2023-07-22T03:55:33.824Z,2.00
2023-07-22T03:58:02.444Z,2.17
2023-07-22T04:00:30.146Z,2.30
2023-07-22T04:02:57.722Z,1.77
2023-07-22T04:05:26.588Z,2.05
2023-07-22T04:07:56.588Z,2.25
2023-07-22T04:10:32.652Z,2.28
2023-07-22T04:13:00.952Z,1.85
2023-07-22T04:15:28.304Z,2.40
2023-07-22T04:18:20.190Z,2.40
2023-07-22T04:21:08.115Z,2.50
2023-07-22T04:23:36.791Z,1.80
2023-07-22T04:26:07.649Z,2.13
2023-07-22T04:28:36.541Z,2.17
2023-07-22T04:31:13.213Z,2.25
2023-07-22T04:33:40.376Z,2.03
2023-07-22T04:36:10.807Z,2.38
2023-07-22T04:38:38.230Z,2.17
2023-07-22T04:41:06.307Z,2.63
2023-07-22T04:43:34.073Z,2.50
2023-07-22T04:46:05.734Z,2.42
2023-07-22T04:48:36.774Z,2.10
2023-07-22T04:51:07.265Z,1.80
2023-07-22T04:53:41.761Z,2.17
2023-07-22T04:56:09.280Z,1.60
2023-07-22T04:58:36.531Z,1.73
2023-07-22T05:01:03.928Z,1.38
2023-07-22T05:03:32.948Z,2.20
2023-07-22T05:06:00.341Z,2.10
2023-07-22T05:08:28.803Z,1.63
2023-07-22T05:10:57.625Z,1.90
2023-07-22T05:13:26.376Z,1.98
2023-07-22T05:15:53.603Z,1.80
2023-07-22T05:18:23.122Z,2.42
2023-07-22T05:20:50.262Z,1.77
2023-07-22T05:23:17.719Z,1.73
2023-07-22T05:25:45.131Z,1.60
2023-07-22T05:28:14.797Z,1.40
2023-07-22T05:30:42.203Z,1.58
2023-07-22T05:33:09.420Z,1.65
2023-07-22T05:35:36.687Z,1.55
2023-07-22T05:38:05.816Z,1.60
2023-07-22T05:40:33.706Z,1.50
2023-07-22T05:43:00.820Z,2.00
2023-07-22T05:45:27.986Z,1.63
2023-07-22T05:47:55.309Z,1.58
2023-07-22T05:50:22.657Z,1.58
2023-07-22T05:52:51.540Z,2.17
2023-07-22T05:55:21.270Z,1.85
2023-07-22T05:57:50.523Z,1.88
2023-07-22T06:00:18.769Z,1.63
2023-07-22T06:02:47.120Z,2.00
2023-07-22T06:05:14.775Z,1.90
2023-07-22T06:07:42.415Z,1.85
2023-07-22T06:10:09.780Z,1.92
2023-07-22T06:12:39.941Z,1.85
2023-07-22T06:15:10.973Z,2.00
2023-07-22T06:17:43.653Z,1.88
2023-07-22T06:20:13.811Z,1.90
2023-07-22T06:22:43.714Z,1.80
2023-07-22T06:25:11.447Z,2.20
2023-07-22T06:27:41.631Z,2.05
2023-07-22T06:30:14.931Z,1.85
2023-07-22T06:32:42.914Z,1.65
2023-07-22T06:35:10.697Z,1.85
2023-07-22T06:37:42.724Z,1.65
2023-07-22T06:40:15.844Z,2.20
2023-07-22T06:42:54.514Z,2.45
2023-07-22T06:45:29.857Z,2.30
2023-07-22T06:48:03.333Z,2.50
2023-07-22T06:50:42.474Z,2.55
2023-07-22T06:53:35.425Z,2.38
2023-07-22T06:56:06.375Z,2.60
2023-07-22T06:58:39.117Z,2.78
2023-07-22T07:01:07.162Z,2.80
2023-07-22T07:03:35.343Z,2.85
2023-07-22T07:06:03.901Z,2.90
2023-07-22T07:08:32.294Z,2.70
2023-07-22T07:11:07.925Z,2.67
2023-07-22T07:13:39.977Z,2.63
2023-07-22T07:16:33.275Z,3.22
2023-07-22T07:19:09.230Z,2.85
2023-07-22T07:21:37.126Z,2.70
2023-07-22T07:24:07.806Z,2.83
2023-07-22T07:26:38.663Z,2.83
2023-07-22T07:29:05.994Z,3.22
2023-07-22T07:31:33.668Z,3.05
2023-07-22T07:34:03.776Z,2.40
2023-07-22T07:36:44.707Z,2.85
2023-07-22T07:39:12.187Z,2.80
2023-07-22T07:41:39.786Z,3.58
2023-07-22T07:44:07.152Z,2.80
2023-07-22T07:46:34.669Z,3.00
2023-07-22T07:49:03.472Z,2.55
2023-07-22T07:51:32.266Z,3.08
2023-07-22T07:54:01.172Z,3.03
2023-07-22T07:56:31.115Z,3.17
2023-07-22T07:59:03.893Z,2.25
2023-07-22T08:01:31.438Z,2.83
2023-07-22T08:04:00.559Z,3.03
2023-07-22T08:06:27.858Z,2.70
2023-07-22T08:08:55.369Z,2.60
2023-07-22T08:11:22.644Z,2.40
2023-07-22T08:13:49.649Z,2.35
2023-07-22T08:16:16.886Z,2.75
2023-07-22T08:18:44.729Z,2.28
2023-07-22T08:21:12.747Z,2.75
2023-07-22T08:23:49.828Z,2.53
2023-07-22T08:26:26.265Z,2.80
2023-07-22T08:28:58.227Z,3.17
2023-07-22T08:31:26.578Z,2.90
2023-07-22T08:34:06.480Z,2.90
2023-07-22T08:36:39.120Z,2.47
2023-07-22T08:39:07.566Z,2.47
2023-07-22T08:41:46.875Z,3.10
2023-07-22T08:44:16.502Z,3.15
2023-07-22T08:46:44.569Z,2.53
2023-07-22T08:49:15.131Z,2.92
2023-07-22T08:51:42.786Z,2.70
2023-07-22T08:54:12.309Z,2.78
2023-07-22T08:56:42.388Z,2.92
2023-07-22T08:59:11.608Z,2.63
2023-07-22T09:01:51.329Z,2.65
2023-07-22T09:04:20.737Z,2.30
2023-07-22T09:06:48.600Z,2.55
2023-07-22T09:09:43.630Z,3.05
2023-07-22T09:12:13.000Z,2.55
2023-07-22T09:14:42.663Z,3.17
2023-07-22T09:17:12.277Z,2.83
2023-07-22T09:19:44.328Z,3.35
2023-07-22T09:22:11.719Z,3.55
2023-07-22T09:24:41.343Z,3.15
2023-07-22T09:27:08.586Z,3.13
2023-07-22T09:29:39.609Z,3.42
2023-07-22T09:32:10.658Z,3.20
2023-07-22T09:34:38.324Z,3.10
2023-07-22T09:37:06.745Z,2.95
2023-07-22T09:39:36.357Z,3.40
2023-07-22T09:42:10.696Z,2.72
2023-07-22T09:44:39.789Z,2.55
2023-07-22T09:47:11.829Z,2.38
2023-07-22T09:49:43.902Z,2.42
2023-07-22T09:52:15.092Z,2.85
2023-07-22T09:54:52.099Z,2.60
2023-07-22T09:57:19.971Z,2.10
2023-07-22T09:59:54.948Z,2.58
2023-07-22T10:02:31.184Z,2.55
2023-07-22T10:05:03.545Z,2.40
2023-07-22T10:07:33.443Z,2.95
2023-07-22T10:10:01.062Z,2.65
2023-07-22T10:12:28.290Z,2.85
2023-07-22T10:15:01.364Z,3.58
2023-07-22T10:17:30.622Z,2.72
2023-07-22T10:19:58.406Z,2.83
2023-07-22T10:22:26.462Z,2.72
2023-07-22T10:24:56.792Z,2.75
2023-07-22T10:27:24.914Z,2.88
2023-07-22T10:29:52.617Z,3.10
2023-07-22T10:32:21.177Z,3.17
2023-07-22T10:34:48.170Z,3.65
2023-07-22T10:37:19.511Z,3.33
2023-07-22T10:39:47.042Z,3.03
2023-07-22T10:42:25.905Z,3.60
2023-07-22T10:45:01.534Z,3.28
2023-07-22T10:47:37.990Z,3.13
2023-07-22T10:50:09.236Z,3.40
2023-07-22T10:52:44.694Z,3.47
2023-07-22T10:55:19.141Z,3.13
2023-07-22T10:57:54.249Z,3.13
2023-07-22T11:00:23.159Z,2.97
2023-07-22T11:03:14.496Z,2.70
2023-07-22T11:05:59.604Z,2.55
2023-07-22T11:08:43.331Z,2.65
2023-07-22T11:11:12.744Z,2.95
2023-07-22T11:13:46.053Z,2.45
2023-07-22T11:16:13.868Z,2.90
2023-07-22T11:18:49.890Z,2.45
2023-07-22T11:21:20.283Z,2.22
2023-07-22T11:23:47.664Z,2.28
2023-07-22T11:26:18.913Z,2.00
2023-07-22T11:28:47.471Z,2.55
2023-07-22T11:31:18.042Z,1.90
2023-07-22T11:33:48.156Z,2.00
2023-07-22T11:36:15.309Z,2.15
2023-07-22T11:38:42.690Z,2.38
2023-07-22T11:41:10.767Z,2.20
2023-07-22T11:43:38.081Z,2.08
2023-07-22T11:46:11.575Z,2.03
2023-07-22T11:48:39.233Z,2.30
2023-07-22T11:51:14.796Z,2.17
2023-07-22T11:54:18.782Z,1.85
2023-07-22T11:57:03.227Z,2.17
2023-07-22T11:59:42.207Z,2.28
2023-07-22T12:02:18.013Z,2.15
2023-07-22T12:04:55.023Z,2.42
2023-07-22T12:07:34.051Z,2.83
2023-07-22T12:10:06.958Z,2.00
2023-07-22T12:12:34.186Z,1.88
2023-07-22T12:15:14.751Z,1.98
2023-07-22T12:18:03.414Z,2.00
2023-07-22T12:20:32.980Z,2.35
2023-07-22T12:23:00.461Z,2.22
2023-07-22T12:25:28.345Z,2.50
2023-07-22T12:27:55.789Z,2.45
2023-07-22T12:30:25.423Z,2.15
2023-07-22T12:32:55.449Z,2.35
2023-07-22T12:35:22.533Z,2.13
2023-07-22T12:37:50.915Z,2.40
2023-07-22T12:40:22.802Z,2.53
2023-07-22T12:42:50.232Z,2.45
2023-07-22T12:45:18.014Z,2.38
2023-07-22T12:47:48.741Z,2.20
2023-07-22T12:50:16.290Z,2.20
2023-07-22T12:52:43.096Z,2.45
2023-07-22T12:55:12.948Z,2.40
2023-07-22T12:57:42.875Z,2.38
2023-07-22T13:00:11.165Z,2.10
2023-07-22T13:02:41.075Z,2.28
2023-07-22T13:05:09.026Z,1.67
2023-07-22T13:07:40.579Z,2.03
2023-07-22T13:10:16.412Z,1.95
2023-07-22T13:12:43.619Z,1.90
2023-07-22T13:15:11.164Z,2.20
2023-07-22T13:17:39.031Z,2.45
2023-07-22T13:20:10.704Z,2.33
2023-07-22T13:22:38.141Z,2.33
2023-07-22T13:25:05.963Z,2.10
2023-07-22T13:27:33.105Z,2.20
2023-07-22T13:30:01.926Z,2.40
2023-07-22T13:32:30.817Z,2.97
2023-07-22T13:34:58.056Z,2.58
2023-07-22T13:37:29.361Z,2.72
2023-07-22T13:39:58.774Z,2.75
2023-07-22T13:42:28.759Z,2.80
2023-07-22T13:44:55.819Z,2.60
2023-07-22T13:47:22.910Z,2.72
2023-07-22T13:49:50.123Z,2.67
2023-07-22T13:52:18.203Z,3.00
2023-07-22T13:54:46.890Z,3.13
2023-07-22T13:57:16.624Z,3.25
2023-07-22T13:59:43.567Z,2.90
2023-07-22T14:02:10.429Z,2.85
2023-07-22T14:04:37.551Z,3.20
2023-07-22T14:07:07.791Z,3.15
2023-07-22T14:09:35.497Z,3.38
2023-07-22T14:12:03.117Z,3.05
2023-07-22T14:14:30.178Z,3.30
2023-07-22T14:16:57.666Z,3.03
2023-07-22T14:19:25.705Z,2.67
2023-07-22T14:21:52.938Z,3.00
2023-07-22T14:24:19.887Z,2.40
2023-07-22T14:26:48.666Z,2.42
2023-07-22T14:29:15.899Z,2.70
2023-07-22T14:31:44.356Z,3.30
2023-07-22T14:34:11.408Z,2.72
2023-07-22T14:36:38.380Z,2.65
2023-07-22T14:39:12.013Z,2.35
2023-07-22T14:41:48.591Z,3.00
2023-07-22T14:44:20.031Z,2.92
2023-07-22T14:46:49.780Z,2.70
2023-07-22T14:49:26.447Z,2.75
2023-07-22T14:51:59.029Z,3.17
2023-07-22T14:54:27.732Z,2.47
2023-07-22T14:56:56.007Z,2.42
2023-07-22T14:59:25.612Z,3.03
2023-07-22T15:01:52.768Z,2.67
2023-07-22T15:04:29.062Z,3.08
2023-07-22T15:06:56.012Z,2.80
2023-07-22T15:09:23.443Z,3.05
2023-07-22T15:11:50.528Z,2.97
2023-07-22T15:14:20.212Z,2.60
2023-07-22T15:16:49.128Z,2.63
2023-07-22T15:19:19.241Z,2.78
2023-07-22T15:21:48.084Z,2.42
2023-07-22T15:24:15.110Z,2.80
2023-07-22T15:26:43.158Z,3.10
2023-07-22T15:29:12.951Z,3.03
2023-07-22T15:31:40.549Z,3.03
2023-07-22T15:34:10.294Z,3.55
2023-07-22T15:36:40.058Z,3.70
2023-07-22T15:39:10.163Z,3.15
2023-07-22T15:41:37.431Z,3.42
2023-07-22T15:44:06.078Z,3.10
2023-07-22T15:46:37.977Z,3.35
2023-07-22T15:49:06.108Z,3.65
2023-07-22T15:51:33.013Z,3.75
2023-07-22T15:54:43.294Z,3.55
2023-07-22T15:57:12.130Z,3.90
2023-07-22T15:59:39.282Z,4.18
2023-07-22T16:02:06.672Z,4.05
2023-07-22T16:04:35.254Z,3.83
2023-07-22T16:07:10.539Z,3.83
2023-07-22T16:09:38.216Z,3.90
2023-07-22T16:12:05.652Z,3.83
2023-07-22T16:14:34.049Z,4.25
2023-07-22T16:17:01.106Z,4.10
2023-07-22T16:19:32.993Z,3.80
2023-07-22T16:21:59.928Z,3.80
2023-07-22T16:24:45.042Z,4.03
2023-07-22T16:27:15.832Z,4.43
2023-07-22T16:29:44.671Z,4.50
2023-07-22T16:32:14.275Z,4.35
2023-07-22T16:35:07.859Z,4.10
2023-07-22T16:37:37.980Z,3.60
2023-07-22T16:40:10.212Z,3.63
2023-07-22T16:42:41.302Z,3.75
2023-07-22T16:45:09.118Z,4.22
2023-07-22T16:47:36.393Z,3.90
2023-07-22T16:50:06.602Z,4.55
2023-07-22T16:52:36.987Z,4.32
2023-07-22T16:55:06.076Z,4.38
2023-07-22T16:57:33.045Z,4.22
2023-07-22T17:00:06.010Z,4.03
2023-07-22T17:02:33.143Z,4.38
2023-07-22T17:05:03.612Z,3.92
2023-07-22T17:07:30.737Z,4.25
2023-07-22T17:10:04.157Z,4.25
2023-07-22T17:12:35.943Z,4.75
2023-07-22T17:15:04.371Z,4.38
2023-07-22T17:17:31.509Z,4.63
2023-07-22T17:19:58.851Z,4.63
2023-07-22T17:22:26.960Z,4.55
2023-07-22T17:25:20.828Z,4.55
2023-07-22T17:27:47.909Z,4.50
2023-07-22T17:30:15.365Z,4.80
2023-07-22T17:32:51.863Z,5.13
2023-07-22T17:35:26.080Z,4.95
2023-07-22T17:37:58.959Z,5.80
2023-07-22T17:40:27.053Z,5.45
2023-07-22T17:43:15.273Z,5.07
2023-07-22T17:45:45.306Z,4.90
2023-07-22T17:48:14.993Z,4.88
2023-07-22T17:50:45.659Z,5.80
2023-07-22T17:53:15.858Z,5.60
2023-07-22T17:55:43.181Z,5.43
2023-07-22T17:58:16.838Z,6.32
2023-07-22T18:00:46.409Z,6.18
2023-07-22T18:03:13.814Z,6.40
2023-07-22T18:05:55.155Z,7.57
2023-07-22T18:08:26.671Z,6.82
2023-07-22T18:11:04.101Z,6.28
2023-07-22T18:13:43.207Z,6.65
2023-07-22T18:16:17.541Z,5.95
2023-07-22T18:18:44.561Z,6.70
2023-07-22T18:21:14.480Z,6.20
2023-07-22T18:23:47.313Z,6.93
2023-07-22T18:26:20.334Z,6.60
2023-07-22T18:28:47.532Z,6.30
2023-07-22T18:31:29.947Z,6.85
2023-07-22T18:36:32.851Z,5.82
2023-07-22T18:39:00.604Z,5.57
2023-07-22T18:42:21.155Z,4.80
2023-07-22T18:45:08.176Z,4.32
2023-07-22T18:47:35.161Z,4.15
2023-07-22T18:50:03.950Z,3.70
2023-07-22T18:52:30.964Z,4.00
2023-07-22T18:55:00.920Z,5.07
2023-07-22T18:57:28.194Z,3.72
2023-07-22T19:00:06.595Z,4.85
2023-07-22T19:02:57.519Z,3.92
2023-07-22T19:05:27.622Z,4.22
2023-07-22T19:07:56.461Z,3.92
2023-07-22T19:10:34.011Z,3.72
2023-07-22T19:13:01.188Z,4.05
2023-07-22T19:15:36.869Z,3.90
2023-07-22T19:18:06.634Z,3.92
2023-07-22T19:20:35.093Z,3.08
2023-07-22T19:23:07.419Z,2.67
2023-07-22T19:25:43.839Z,3.20
2023-07-22T19:28:11.314Z,3.38
2023-07-22T19:30:43.969Z,2.85
2023-07-22T19:35:52.973Z,2.67
2023-07-22T19:38:20.614Z,2.90
2023-07-22T19:40:48.031Z,2.80
2023-07-22T19:43:18.112Z,3.05
2023-07-22T19:46:09.244Z,3.08
2023-07-22T19:48:36.922Z,3.03
2023-07-22T19:51:16.810Z,2.80
2023-07-22T19:53:47.481Z,3.00
2023-07-22T19:56:15.081Z,2.75
2023-07-22T19:58:43.283Z,2.92
2023-07-22T20:02:00.431Z,3.22
2023-07-22T20:05:07.196Z,2.90
2023-07-22T20:10:34.544Z,3.28
2023-07-22T20:13:34.728Z,2.72
2023-07-22T20:16:26.686Z,3.08
2023-07-22T20:19:34.647Z,2.75
2023-07-22T20:22:22.723Z,2.60
2023-07-22T20:31:04.209Z,2.83
2023-07-22T20:37:09.333Z,2.80
2023-07-22T20:39:41.275Z,2.78
2023-07-22T20:42:11.011Z,2.97
2023-07-22T20:44:38.159Z,2.97
2023-07-22T20:47:11.538Z,2.83
2023-07-22T20:49:39.685Z,2.47
2023-07-22T20:52:17.026Z,3.70
2023-07-22T20:54:59.799Z,2.50
2023-07-22T20:57:27.251Z,2.80
2023-07-22T21:00:02.514Z,3.20
2023-07-22T21:02:31.798Z,2.90
2023-07-22T21:04:58.994Z,2.60
2023-07-22T21:07:34.594Z,3.20
2023-07-22T21:10:01.857Z,2.67
2023-07-22T21:12:33.373Z,2.78
2023-07-22T21:15:00.466Z,2.60
2023-07-22T21:17:28.031Z,2.55
2023-07-22T21:19:56.487Z,2.58
2023-07-22T21:22:26.230Z,2.80
2023-07-22T21:24:55.477Z,2.90
2023-07-22T21:27:42.870Z,2.80
2023-07-22T21:30:16.592Z,2.67
2023-07-22T21:32:46.334Z,2.55
2023-07-22T21:35:16.912Z,2.60
2023-07-22T21:37:47.267Z,2.88
2023-07-22T21:40:18.495Z,2.58
2023-07-22T21:42:52.707Z,2.00
2023-07-22T21:45:31.296Z,2.40
2023-07-22T21:48:13.132Z,2.28
2023-07-22T21:50:47.834Z,2.30
2023-07-22T21:53:16.112Z,2.58
2023-07-22T21:56:04.744Z,2.28
2023-07-22T21:59:02.833Z,2.13
2023-07-22T22:01:34.334Z,2.25
2023-07-22T22:04:13.067Z,2.17
2023-07-22T22:06:46.541Z,2.05
2023-07-22T22:09:16.914Z,1.75
2023-07-22T22:11:44.086Z,1.73
2023-07-22T22:14:11.539Z,1.80
2023-07-22T22:16:44.427Z,1.80
2023-07-22T22:19:21.974Z,1.85
2023-07-22T22:21:49.375Z,1.40
2023-07-22T22:24:16.642Z,1.20
2023-07-22T22:26:43.729Z,1.42
2023-07-22T22:29:10.640Z,1.48
2023-07-22T22:31:38.169Z,1.60
2023-07-22T22:34:05.252Z,1.48
2023-07-22T22:36:33.298Z,1.50
2023-07-22T22:39:01.625Z,1.35
2023-07-22T22:41:28.979Z,1.58
2023-07-22T22:43:56.768Z,1.30
2023-07-22T22:46:23.902Z,1.70
2023-07-22T22:48:51.065Z,1.30
2023-07-22T22:51:21.925Z,1.60
2023-07-22T22:54:01.131Z,1.95
2023-07-22T22:56:28.348Z,1.80
2023-07-22T22:58:55.677Z,1.48
2023-07-22T23:01:27.561Z,1.70
2023-07-22T23:03:56.045Z,1.60
2023-07-22T23:06:23.637Z,2.03
2023-07-22T23:08:51.027Z,1.73
2023-07-22T23:11:24.893Z,1.80
2023-07-22T23:13:54.609Z,1.98
2023-07-22T23:16:22.000Z,1.73
2023-07-22T23:18:50.271Z,1.48
2023-07-22T23:21:18.863Z,1.45
2023-07-22T23:23:47.851Z,1.35
2023-07-22T23:26:18.138Z,1.50
2023-07-22T23:28:47.739Z,1.45
2023-07-22T23:31:15.297Z,1.50
2023-07-22T23:33:42.411Z,1.15
2023-07-22T23:36:09.662Z,1.10
2023-07-22T23:38:39.148Z,1.35
2023-07-22T23:41:08.921Z,1.27
2023-07-22T23:43:36.743Z,1.27
2023-07-22T23:46:03.885Z,1.20
2023-07-22T23:48:33.556Z,1.05
2023-07-22T23:51:01.801Z,0.98
2023-07-22T23:53:28.857Z,1.08
2023-07-22T23:55:55.921Z,1.00
2023-07-22T23:58:25.955Z,1.52
